N36AT KSLC-KASE
Flight info
| Callsign | N36AT |
|---|---|
| Flight time | 0h 53m |
| Altitude | 41000 |
| Route | RUGGD3 EKR DBL |
| Aircraft | C25C/M-SDE2E3FGHRWXY/LB1 |
Departure
| Time | 2026-04-24 21:38 |
|---|---|
| Airport | Salt Lake City International Airport (KSLC) |
Arrival
| Time | 2026-04-24 22:31 |
|---|---|
| Airport | Aspen-Pitkin County Airport (Sardy Field) (KASE) |
| Time | Latitude | Longitude | Altitude | Speed | Heading |
|---|---|---|---|---|---|
| 2026-04-24 21:13 | 40.79435 | -111.98123 | 4223 ft | 0 kts | 354° |
| 2026-04-24 21:31 | 40.79436 | -111.98123 | 4223 ft | 0 kts | 3° |
| 2026-04-24 21:32 | 40.79444 | -111.98109 | 4223 ft | 5 kts | 84° |
| 2026-04-24 21:32 | 40.79428 | -111.98038 | 4224 ft | 9 kts | 107° |
| 2026-04-24 21:32 | 40.79429 | -111.97952 | 4220 ft | 10 kts | 84° |
| 2026-04-24 21:32 | 40.79417 | -111.97869 | 4220 ft | 9 kts | 113° |
| 2026-04-24 21:33 | 40.79368 | -111.97845 | 4220 ft | 7 kts | 174° |
| 2026-04-24 21:33 | 40.79325 | -111.97839 | 4221 ft | 5 kts | 174° |
| 2026-04-24 21:33 | 40.79276 | -111.97838 | 4222 ft | 10 kts | 178° |
| 2026-04-24 21:33 | 40.79202 | -111.97770 | 4223 ft | 21 kts | 100° |
| 2026-04-24 21:34 | 40.79055 | -111.97704 | 4227 ft | 25 kts | 180° |
| 2026-04-24 21:34 | 40.78881 | -111.97695 | 4227 ft | 26 kts | 177° |
| 2026-04-24 21:34 | 40.78697 | -111.97673 | 4226 ft | 27 kts | 174° |
| 2026-04-24 21:34 | 40.78506 | -111.97652 | 4221 ft | 29 kts | 175° |
| 2026-04-24 21:35 | 40.78355 | -111.97634 | 4219 ft | 20 kts | 175° |
| 2026-04-24 21:35 | 40.78223 | -111.97619 | 4219 ft | 19 kts | 175° |
| 2026-04-24 21:35 | 40.78092 | -111.97604 | 4218 ft | 19 kts | 173° |
| 2026-04-24 21:35 | 40.77966 | -111.97591 | 4248 ft | 17 kts | 172° |
| 2026-04-24 21:36 | 40.77862 | -111.97540 | 4249 ft | 16 kts | 156° |
| 2026-04-24 21:36 | 40.77763 | -111.97516 | 4252 ft | 13 kts | 175° |
| 2026-04-24 21:36 | 40.77679 | -111.97508 | 4253 ft | 11 kts | 175° |
| 2026-04-24 21:36 | 40.77603 | -111.97498 | 4252 ft | 11 kts | 172° |
| 2026-04-24 21:37 | 40.77558 | -111.97421 | 4251 ft | 12 kts | 91° |
| 2026-04-24 21:37 | 40.77601 | -111.97335 | 4251 ft | 12 kts | 14° |
| 2026-04-24 21:37 | 40.77728 | -111.97348 | 4251 ft | 48 kts | 354° |
| 2026-04-24 21:37 | 40.78350 | -111.97280 | 4239 ft | 127 kts | 1° |
| 2026-04-24 21:38 | 40.79380 | -111.97268 | 4906 ft | 166 kts | 355° |
| 2026-04-24 21:38 | 40.80589 | -111.97148 | 5970 ft | 189 kts | 4° |
| 2026-04-24 21:38 | 40.82077 | -111.96870 | 6051 ft | 230 kts | 5° |
| 2026-04-24 21:38 | 40.83642 | -111.96628 | 6119 ft | 222 kts | 1° |
| 2026-04-24 21:39 | 40.85207 | -111.96772 | 5976 ft | 242 kts | 349° |
| 2026-04-24 21:39 | 40.86913 | -111.97377 | 6749 ft | 251 kts | 338° |
| 2026-04-24 21:39 | 40.88543 | -111.98273 | 7874 ft | 253 kts | 333° |
| 2026-04-24 21:39 | 40.90240 | -111.99086 | 8802 ft | 264 kts | 342° |
| 2026-04-24 21:40 | 40.92093 | -111.99457 | 9751 ft | 276 kts | 348° |
| 2026-04-24 21:40 | 40.94019 | -111.99719 | 10689 ft | 279 kts | 349° |
| 2026-04-24 21:40 | 40.95956 | -112.00024 | 11683 ft | 282 kts | 346° |
| 2026-04-24 21:40 | 40.97913 | -112.00393 | 12666 ft | 286 kts | 346° |
| 2026-04-24 21:41 | 40.99868 | -112.00759 | 13683 ft | 288 kts | 345° |
| 2026-04-24 21:41 | 41.01864 | -112.01041 | 14620 ft | 295 kts | 354° |
| 2026-04-24 21:41 | 41.03900 | -112.00328 | 15566 ft | 308 kts | 17° |
| 2026-04-24 21:41 | 41.05650 | -111.98626 | 16511 ft | 322 kts | 46° |
| 2026-04-24 21:42 | 41.06843 | -111.96080 | 17494 ft | 327 kts | 60° |
| 2026-04-24 21:42 | 41.07811 | -111.93354 | 18454 ft | 328 kts | 63° |
| 2026-04-24 21:42 | 41.08716 | -111.90576 | 19328 ft | 328 kts | 63° |
| 2026-04-24 21:42 | 41.09670 | -111.87823 | 20256 ft | 329 kts | 61° |
| 2026-04-24 21:43 | 41.10657 | -111.85080 | 21248 ft | 331 kts | 60° |
| 2026-04-24 21:43 | 41.11631 | -111.82314 | 22183 ft | 333 kts | 62° |
| 2026-04-24 21:43 | 41.12159 | -111.79311 | 23039 ft | 340 kts | 90° |
| 2026-04-24 21:43 | 41.11782 | -111.76243 | 23804 ft | 335 kts | 116° |
| 2026-04-24 21:44 | 41.10605 | -111.73707 | 24578 ft | 321 kts | 141° |
| 2026-04-24 21:44 | 41.08952 | -111.71827 | 25391 ft | 311 kts | 151° |
| 2026-04-24 21:44 | 41.07280 | -111.70017 | 26213 ft | 308 kts | 151° |
| 2026-04-24 21:44 | 41.05605 | -111.68268 | 27004 ft | 305 kts | 153° |
| 2026-04-24 21:45 | 41.03952 | -111.66516 | 27781 ft | 304 kts | 152° |
| 2026-04-24 21:45 | 41.02310 | -111.64758 | 28523 ft | 302 kts | 153° |
| 2026-04-24 21:45 | 41.00672 | -111.63022 | 29299 ft | 302 kts | 152° |
| 2026-04-24 21:45 | 40.99054 | -111.61277 | 30026 ft | 298 kts | 154° |
| 2026-04-24 21:46 | 40.97433 | -111.59577 | 30660 ft | 297 kts | 154° |
| 2026-04-24 21:46 | 40.95828 | -111.57877 | 31280 ft | 295 kts | 154° |
| 2026-04-24 21:46 | 40.94232 | -111.56186 | 31770 ft | 292 kts | 155° |
| 2026-04-24 21:46 | 40.92649 | -111.54500 | 32378 ft | 292 kts | 155° |
| 2026-04-24 21:47 | 40.91089 | -111.52850 | 32961 ft | 290 kts | 155° |
| 2026-04-24 21:47 | 40.89521 | -111.51182 | 33554 ft | 288 kts | 156° |
| 2026-04-24 21:47 | 40.87956 | -111.49535 | 34086 ft | 288 kts | 155° |
| 2026-04-24 21:47 | 40.86395 | -111.47892 | 34548 ft | 286 kts | 155° |
| 2026-04-24 21:48 | 40.84842 | -111.46241 | 34965 ft | 287 kts | 154° |
| 2026-04-24 21:48 | 40.83285 | -111.44596 | 35359 ft | 286 kts | 154° |
| 2026-04-24 21:48 | 40.81733 | -111.42936 | 35749 ft | 291 kts | 149° |
| 2026-04-24 21:48 | 40.80354 | -111.40907 | 36150 ft | 302 kts | 137° |
| 2026-04-24 21:49 | 40.79218 | -111.38523 | 36561 ft | 312 kts | 123° |
| 2026-04-24 21:49 | 40.78402 | -111.35850 | 36977 ft | 318 kts | 109° |
| 2026-04-24 21:49 | 40.77789 | -111.33045 | 37417 ft | 318 kts | 111° |
| 2026-04-24 21:49 | 40.77143 | -111.30260 | 37866 ft | 318 kts | 110° |
| 2026-04-24 21:50 | 40.76508 | -111.27464 | 38320 ft | 318 kts | 109° |
| 2026-04-24 21:50 | 40.75881 | -111.24668 | 38696 ft | 318 kts | 109° |
| 2026-04-24 21:50 | 40.75247 | -111.21877 | 39032 ft | 318 kts | 109° |
| 2026-04-24 21:50 | 40.74609 | -111.19080 | 39369 ft | 318 kts | 109° |
| 2026-04-24 21:51 | 40.73979 | -111.16283 | 39713 ft | 318 kts | 110° |
| 2026-04-24 21:51 | 40.73336 | -111.13491 | 40070 ft | 318 kts | 109° |
| 2026-04-24 21:51 | 40.72696 | -111.10698 | 40343 ft | 318 kts | 110° |
| 2026-04-24 21:51 | 40.72069 | -111.07900 | 40596 ft | 319 kts | 107° |
| 2026-04-24 21:52 | 40.71435 | -111.05080 | 40783 ft | 325 kts | 110° |
| 2026-04-24 21:52 | 40.70079 | -110.99256 | 40809 ft | 344 kts | 109° |
| 2026-04-24 21:53 | 40.68665 | -110.93061 | 40812 ft | 362 kts | 109° |
| 2026-04-24 21:53 | 40.67166 | -110.86572 | 40818 ft | 376 kts | 109° |
| 2026-04-24 21:54 | 40.65624 | -110.79871 | 40813 ft | 390 kts | 109° |
| 2026-04-24 21:54 | 40.64004 | -110.72895 | 40801 ft | 405 kts | 109° |
| 2026-04-24 21:55 | 40.62333 | -110.65687 | 40803 ft | 418 kts | 109° |
| 2026-04-24 21:55 | 40.60602 | -110.58276 | 40795 ft | 428 kts | 109° |
| 2026-04-24 21:56 | 40.58832 | -110.50705 | 40789 ft | 438 kts | 109° |
| 2026-04-24 21:56 | 40.57021 | -110.42978 | 40780 ft | 446 kts | 109° |
| 2026-04-24 21:57 | 40.55183 | -110.35182 | 40777 ft | 451 kts | 109° |
| 2026-04-24 21:57 | 40.53376 | -110.27182 | 40761 ft | 457 kts | 105° |
| 2026-04-24 21:58 | 40.51873 | -110.19080 | 40750 ft | 461 kts | 105° |
| 2026-04-24 21:58 | 40.50315 | -110.10873 | 40745 ft | 465 kts | 105° |
| 2026-04-24 21:59 | 40.48753 | -110.02591 | 40733 ft | 468 kts | 105° |
| 2026-04-24 21:59 | 40.47168 | -109.94275 | 40732 ft | 471 kts | 105° |
| 2026-04-24 22:00 | 40.45577 | -109.85924 | 40699 ft | 472 kts | 105° |
| 2026-04-24 22:00 | 40.43970 | -109.77548 | 40703 ft | 474 kts | 106° |
| 2026-04-24 22:01 | 40.42351 | -109.69131 | 40705 ft | 476 kts | 106° |
| 2026-04-24 22:01 | 40.40717 | -109.60692 | 40799 ft | 477 kts | 106° |
| 2026-04-24 22:02 | 40.39079 | -109.52250 | 40806 ft | 478 kts | 106° |
| 2026-04-24 22:02 | 40.37442 | -109.43853 | 40801 ft | 479 kts | 106° |
| 2026-04-24 22:03 | 40.35753 | -109.35385 | 40752 ft | 481 kts | 105° |
| 2026-04-24 22:03 | 40.34130 | -109.26877 | 40728 ft | 480 kts | 107° |
| 2026-04-24 22:04 | 40.32424 | -109.18400 | 40698 ft | 481 kts | 106° |
| 2026-04-24 22:04 | 40.30759 | -109.09903 | 40686 ft | 482 kts | 107° |
| 2026-04-24 22:05 | 40.29053 | -109.01403 | 40676 ft | 482 kts | 106° |
| 2026-04-24 22:05 | 40.27360 | -108.92894 | 40607 ft | 484 kts | 106° |
| 2026-04-24 22:05 | 40.26503 | -108.88637 | 40116 ft | 497 kts | 107° |
| 2026-04-24 22:06 | 40.25610 | -108.84212 | 39612 ft | 508 kts | 107° |
| 2026-04-24 22:06 | 40.24703 | -108.79706 | 39144 ft | 512 kts | 106° |
| 2026-04-24 22:06 | 40.23816 | -108.75268 | 38665 ft | 495 kts | 106° |
| 2026-04-24 22:06 | 40.22945 | -108.70971 | 38074 ft | 482 kts | 107° |
| 2026-04-24 22:07 | 40.22094 | -108.66781 | 37424 ft | 471 kts | 107° |
| 2026-04-24 22:07 | 40.21258 | -108.62680 | 36786 ft | 462 kts | 108° |
| 2026-04-24 22:07 | 40.20442 | -108.58655 | 36154 ft | 454 kts | 108° |
| 2026-04-24 22:07 | 40.19632 | -108.54687 | 35555 ft | 448 kts | 108° |
| 2026-04-24 22:08 | 40.18832 | -108.50775 | 34963 ft | 442 kts | 108° |
| 2026-04-24 22:08 | 40.18040 | -108.46913 | 34388 ft | 437 kts | 109° |
| 2026-04-24 22:08 | 40.17259 | -108.43090 | 33833 ft | 432 kts | 109° |
| 2026-04-24 22:08 | 40.16481 | -108.39312 | 33221 ft | 428 kts | 109° |
| 2026-04-24 22:09 | 40.15712 | -108.35572 | 32590 ft | 424 kts | 109° |
| 2026-04-24 22:09 | 40.14943 | -108.31855 | 31979 ft | 421 kts | 109° |
| 2026-04-24 22:09 | 40.14197 | -108.28232 | 31393 ft | 417 kts | 109° |
| 2026-04-24 22:09 | 40.13444 | -108.24591 | 30819 ft | 413 kts | 109° |
| 2026-04-24 22:10 | 40.12697 | -108.20986 | 30257 ft | 409 kts | 109° |
| 2026-04-24 22:10 | 40.11953 | -108.17419 | 29688 ft | 405 kts | 109° |
| 2026-04-24 22:10 | 40.11221 | -108.13884 | 29006 ft | 402 kts | 108° |
| 2026-04-24 22:10 | 40.10486 | -108.10372 | 28371 ft | 398 kts | 108° |
| 2026-04-24 22:11 | 40.09763 | -108.06898 | 27762 ft | 394 kts | 108° |
| 2026-04-24 22:11 | 40.09046 | -108.03466 | 27172 ft | 390 kts | 108° |
| 2026-04-24 22:11 | 40.08337 | -108.00064 | 26582 ft | 385 kts | 108° |
| 2026-04-24 22:11 | 40.07628 | -107.96713 | 26151 ft | 380 kts | 108° |
| 2026-04-24 22:12 | 40.06903 | -107.93420 | 25586 ft | 374 kts | 114° |
| 2026-04-24 22:12 | 40.05596 | -107.90585 | 25027 ft | 360 kts | 133° |
| 2026-04-24 22:12 | 40.04077 | -107.87992 | 24327 ft | 360 kts | 133° |
| 2026-04-24 22:12 | 40.02520 | -107.85433 | 23631 ft | 359 kts | 134° |
| 2026-04-24 22:13 | 40.00966 | -107.82893 | 22853 ft | 357 kts | 133° |
| 2026-04-24 22:13 | 39.99453 | -107.80378 | 21942 ft | 356 kts | 133° |
| 2026-04-24 22:13 | 39.97937 | -107.77833 | 21159 ft | 354 kts | 133° |
| 2026-04-24 22:13 | 39.96419 | -107.75321 | 20380 ft | 352 kts | 133° |
| 2026-04-24 22:14 | 39.94911 | -107.72825 | 19808 ft | 345 kts | 133° |
| 2026-04-24 22:14 | 39.93477 | -107.70444 | 19741 ft | 322 kts | 133° |
| 2026-04-24 22:14 | 39.92136 | -107.68213 | 19725 ft | 303 kts | 134° |
| 2026-04-24 22:14 | 39.90872 | -107.66121 | 19720 ft | 286 kts | 134° |
| 2026-04-24 22:15 | 39.89666 | -107.64139 | 19716 ft | 272 kts | 134° |
| 2026-04-24 22:15 | 39.88535 | -107.62271 | 19712 ft | 260 kts | 135° |
| 2026-04-24 22:15 | 39.87401 | -107.60417 | 19427 ft | 264 kts | 135° |
| 2026-04-24 22:15 | 39.86265 | -107.58529 | 19149 ft | 265 kts | 135° |
| 2026-04-24 22:16 | 39.85120 | -107.56643 | 18883 ft | 265 kts | 134° |
| 2026-04-24 22:16 | 39.83978 | -107.54762 | 18578 ft | 266 kts | 135° |
| 2026-04-24 22:16 | 39.82825 | -107.52863 | 18247 ft | 268 kts | 134° |
| 2026-04-24 22:16 | 39.81664 | -107.50953 | 17904 ft | 270 kts | 135° |
| 2026-04-24 22:17 | 39.80494 | -107.49032 | 17537 ft | 271 kts | 135° |
| 2026-04-24 22:17 | 39.79324 | -107.47104 | 17158 ft | 272 kts | 134° |
| 2026-04-24 22:17 | 39.78152 | -107.45176 | 16819 ft | 271 kts | 134° |
| 2026-04-24 22:17 | 39.76983 | -107.43260 | 16469 ft | 270 kts | 134° |
| 2026-04-24 22:18 | 39.75822 | -107.41348 | 16121 ft | 268 kts | 134° |
| 2026-04-24 22:18 | 39.74678 | -107.39481 | 16052 ft | 257 kts | 137° |
| 2026-04-24 22:18 | 39.73599 | -107.37697 | 16034 ft | 243 kts | 136° |
| 2026-04-24 22:18 | 39.72913 | -107.36569 | 16055 ft | 236 kts | 136° |
| 2026-04-24 22:19 | 39.71915 | -107.34937 | 16149 ft | 225 kts | 137° |
| 2026-04-24 22:19 | 39.70640 | -107.32865 | 16131 ft | 217 kts | 137° |
| 2026-04-24 22:19 | 39.69718 | -107.31340 | 16127 ft | 212 kts | 137° |
| 2026-04-24 22:19 | 39.68815 | -107.29875 | 16137 ft | 204 kts | 140° |
| 2026-04-24 22:20 | 39.67943 | -107.28448 | 16141 ft | 199 kts | 137° |
| 2026-04-24 22:20 | 39.67368 | -107.27506 | 16136 ft | 195 kts | 140° |
| 2026-04-24 22:20 | 39.66531 | -107.26169 | 16142 ft | 188 kts | 137° |
| 2026-04-24 22:20 | 39.65768 | -107.24865 | 16092 ft | 179 kts | 140° |
| 2026-04-24 22:21 | 39.64964 | -107.23579 | 15743 ft | 191 kts | 139° |
| 2026-04-24 22:21 | 39.64080 | -107.22484 | 15853 ft | 175 kts | 138° |
| 2026-04-24 22:21 | 39.63429 | -107.20987 | 15646 ft | 196 kts | 130° |
| 2026-04-24 22:21 | 39.62609 | -107.19682 | 15800 ft | 181 kts | 144° |
| 2026-04-24 22:22 | 39.61804 | -107.18411 | 15924 ft | 182 kts | 136° |
| 2026-04-24 22:22 | 39.61017 | -107.17164 | 16048 ft | 176 kts | 136° |
| 2026-04-24 22:22 | 39.60230 | -107.15895 | 15947 ft | 187 kts | 135° |
| 2026-04-24 22:22 | 39.59441 | -107.14563 | 16050 ft | 183 kts | 137° |
| 2026-04-24 22:23 | 39.58638 | -107.13319 | 16153 ft | 183 kts | 135° |
| 2026-04-24 22:23 | 39.57850 | -107.11999 | 16187 ft | 186 kts | 136° |
| 2026-04-24 22:23 | 39.57033 | -107.10690 | 16210 ft | 188 kts | 135° |
| 2026-04-24 22:23 | 39.56210 | -107.09339 | 16207 ft | 193 kts | 136° |
| 2026-04-24 22:24 | 39.55357 | -107.07964 | 16209 ft | 198 kts | 134° |
| 2026-04-24 22:24 | 39.54484 | -107.06551 | 16212 ft | 206 kts | 135° |
| 2026-04-24 22:24 | 39.53547 | -107.05029 | 16218 ft | 225 kts | 134° |
| 2026-04-24 22:24 | 39.52535 | -107.03387 | 16221 ft | 241 kts | 136° |
| 2026-04-24 22:25 | 39.51446 | -107.01649 | 16228 ft | 256 kts | 134° |
| 2026-04-24 22:25 | 39.50320 | -106.99781 | 16232 ft | 270 kts | 135° |
| 2026-04-24 22:25 | 39.49113 | -106.97842 | 16235 ft | 283 kts | 135° |
| 2026-04-24 22:25 | 39.47854 | -106.95816 | 16232 ft | 294 kts | 135° |
| 2026-04-24 22:26 | 39.46566 | -106.93729 | 15879 ft | 297 kts | 134° |
| 2026-04-24 22:26 | 39.45249 | -106.91700 | 15465 ft | 292 kts | 138° |
| 2026-04-24 22:26 | 39.43675 | -106.90145 | 15017 ft | 280 kts | 166° |
| 2026-04-24 22:26 | 39.41827 | -106.89463 | 14560 ft | 275 kts | 172° |
| 2026-04-24 22:27 | 39.39971 | -106.88961 | 14113 ft | 272 kts | 175° |
| 2026-04-24 22:27 | 39.38157 | -106.88453 | 13641 ft | 266 kts | 175° |
| 2026-04-24 22:27 | 39.36438 | -106.87962 | 13050 ft | 238 kts | 174° |
| 2026-04-24 22:27 | 39.34915 | -106.87491 | 12580 ft | 215 kts | 174° |
| 2026-04-24 22:28 | 39.33488 | -106.87047 | 12042 ft | 210 kts | 173° |
| 2026-04-24 22:28 | 39.32080 | -106.86625 | 11488 ft | 203 kts | 178° |
| 2026-04-24 22:28 | 39.30721 | -106.86600 | 11099 ft | 186 kts | 201° |
| 2026-04-24 22:28 | 39.29605 | -106.87313 | 10567 ft | 177 kts | 217° |
| 2026-04-24 22:29 | 39.27576 | -106.88945 | 8858 ft | 155 kts | 200° |
| 2026-04-24 22:29 | 39.26592 | -106.88907 | 8209 ft | 138 kts | 173° |
| 2026-04-24 22:29 | 39.25776 | -106.88493 | 7933 ft | 118 kts | 174° |
| 2026-04-24 22:30 | 39.25003 | -106.88142 | 7929 ft | 119 kts | 175° |
| 2026-04-24 22:30 | 39.24191 | -106.87797 | 7852 ft | 125 kts | 174° |
| 2026-04-24 22:30 | 39.23400 | -106.87423 | 7820 ft | 109 kts | 162° |
| 2026-04-24 22:30 | 39.22759 | -106.87096 | 7719 ft | 84 kts | 161° |
| 2026-04-24 22:31 | 39.22395 | -106.86932 | 7741 ft | 21 kts | 160° |
| 2026-04-24 22:31 | 39.22329 | -106.86827 | 7745 ft | 15 kts | 73° |
| 2026-04-24 22:31 | 39.22418 | -106.86815 | 7741 ft | 16 kts | 335° |
| 2026-04-24 22:31 | 39.22529 | -106.86863 | 7737 ft | 17 kts | 340° |
| 2026-04-24 22:32 | 39.22630 | -106.86876 | 7728 ft | 11 kts | 38° |
| 2026-04-24 22:32 | 39.22646 | -106.86892 | 7727 ft | 0 kts | 241° |